sensor_id;sensor_type;location;lat;lon;timestamp;P1;durP1;ratioP1;P2;durP2;ratioP2
9934;SDS011;5006;41.828;23.478;2024-02-26T00:00:39;7.43;;;6.50;;
9934;SDS011;5006;41.828;23.478;2024-02-26T00:01:45;7.32;;;6.63;;
9934;SDS011;5006;41.828;23.478;2024-02-26T00:02:53;9.43;;;6.88;;
9934;SDS011;5006;41.828;23.478;2024-02-26T00:03:58;7.50;;;6.80;;
9934;SDS011;5006;41.828;23.478;2024-02-26T00:05:07;8.32;;;7.13;;
9934;SDS011;5006;41.828;23.478;2024-02-26T00:06:13;7.82;;;7.03;;
9934;SDS011;5006;41.828;23.478;2024-02-26T00:07:22;8.15;;;6.78;;
9934;SDS011;5006;41.828;23.478;2024-02-26T00:08:28;7.63;;;6.60;;
9934;SDS011;5006;41.828;23.478;2024-02-26T00:09:36;9.38;;;7.03;;
9934;SDS011;5006;41.828;23.478;2024-02-26T00:10:41;8.25;;;6.72;;
9934;SDS011;5006;41.828;23.478;2024-02-26T00:11:48;8.98;;;6.93;;
9934;SDS011;5006;41.828;23.478;2024-02-26T00:12:55;8.98;;;6.45;;
9934;SDS011;5006;41.828;23.478;2024-02-26T00:14:01;7.43;;;6.32;;
9934;SDS011;5006;41.828;23.478;2024-02-26T00:15:08;6.72;;;6.03;;
9934;SDS011;5006;41.828;23.478;2024-02-26T00:16:14;8.88;;;5.53;;
9934;SDS011;5006;41.828;23.478;2024-02-26T00:17:19;7.97;;;5.90;;
9934;SDS011;5006;41.828;23.478;2024-02-26T00:18:25;8.15;;;6.28;;
9934;SDS011;5006;41.828;23.478;2024-02-26T00:19:32;6.93;;;6.18;;
9934;SDS011;5006;41.828;23.478;2024-02-26T00:20:38;7.28;;;6.47;;
9934;SDS011;5006;41.828;23.478;2024-02-26T00:21:44;6.78;;;6.18;;
9934;SDS011;5006;41.828;23.478;2024-02-26T00:22:51;7.15;;;5.95;;
9934;SDS011;5006;41.828;23.478;2024-02-26T00:23:57;7.47;;;6.53;;
9934;SDS011;5006;41.828;23.478;2024-02-26T00:25:03;8.13;;;6.90;;
9934;SDS011;5006;41.828;23.478;2024-02-26T00:26:10;8.60;;;5.57;;
9934;SDS011;5006;41.828;23.478;2024-02-26T00:27:15;6.40;;;5.13;;
9934;SDS011;5006;41.828;23.478;2024-02-26T00:28:21;6.38;;;5.35;;
9934;SDS011;5006;41.828;23.478;2024-02-26T00:29:26;5.93;;;5.32;;
9934;SDS011;5006;41.828;23.478;2024-02-26T00:30:32;6.00;;;5.40;;
9934;SDS011;5006;41.828;23.478;2024-02-26T00:31:37;6.45;;;5.28;;
9934;SDS011;5006;41.828;23.478;2024-02-26T00:32:44;7.65;;;5.97;;
9934;SDS011;5006;41.828;23.478;2024-02-26T00:33:49;7.35;;;5.70;;
9934;SDS011;5006;41.828;23.478;2024-02-26T00:34:55;7.30;;;6.20;;
9934;SDS011;5006;41.828;23.478;2024-02-26T00:36:00;8.38;;;6.88;;
9934;SDS011;5006;41.828;23.478;2024-02-26T00:37:08;6.70;;;5.55;;
9934;SDS011;5006;41.828;23.478;2024-02-26T00:38:15;6.65;;;5.65;;
9934;SDS011;5006;41.828;23.478;2024-02-26T00:39:21;7.07;;;6.20;;
9934;SDS011;5006;41.828;23.478;2024-02-26T00:40:26;10.02;;;5.82;;
9934;SDS011;5006;41.828;23.478;2024-02-26T00:41:33;7.53;;;6.15;;
9934;SDS011;5006;41.828;23.478;2024-02-26T00:42:38;6.35;;;5.47;;
9934;SDS011;5006;41.828;23.478;2024-02-26T00:43:49;7.10;;;5.93;;
9934;SDS011;5006;41.828;23.478;2024-02-26T00:44:54;7.55;;;5.75;;
9934;SDS011;5006;41.828;23.478;2024-02-26T00:45:59;6.22;;;5.63;;
9934;SDS011;5006;41.828;23.478;2024-02-26T00:47:06;6.60;;;5.57;;
9934;SDS011;5006;41.828;23.478;2024-02-26T00:48:13;5.80;;;5.30;;
9934;SDS011;5006;41.828;23.478;2024-02-26T00:49:19;6.05;;;5.45;;
9934;SDS011;5006;41.828;23.478;2024-02-26T00:50:25;6.25;;;5.50;;
9934;SDS011;5006;41.828;23.478;2024-02-26T00:51:31;7.70;;;6.40;;
9934;SDS011;5006;41.828;23.478;2024-02-26T00:52:36;6.95;;;5.70;;
9934;SDS011;5006;41.828;23.478;2024-02-26T00:53:44;6.43;;;5.40;;
9934;SDS011;5006;41.828;23.478;2024-02-26T00:54:50;7.22;;;5.70;;
9934;SDS011;5006;41.828;23.478;2024-02-26T00:55:57;5.68;;;5.10;;
9934;SDS011;5006;41.828;23.478;2024-02-26T00:57:03;6.93;;;5.20;;
9934;SDS011;5006;41.828;23.478;2024-02-26T00:58:09;6.90;;;5.35;;
9934;SDS011;5006;41.828;23.478;2024-02-26T00:59:15;5.50;;;5.00;;
9934;SDS011;5006;41.828;23.478;2024-02-26T01:00:22;6.05;;;5.40;;
9934;SDS011;5006;41.828;23.478;2024-02-26T01:01:27;6.32;;;5.72;;
9934;SDS011;5006;41.828;23.478;2024-02-26T01:02:33;5.55;;;5.05;;
9934;SDS011;5006;41.828;23.478;2024-02-26T01:03:38;6.90;;;5.30;;
9934;SDS011;5006;41.828;23.478;2024-02-26T01:04:44;7.18;;;5.50;;
9934;SDS011;5006;41.828;23.478;2024-02-26T01:05:50;7.38;;;5.65;;
9934;SDS011;5006;41.828;23.478;2024-02-26T01:06:56;6.07;;;5.47;;
9934;SDS011;5006;41.828;23.478;2024-02-26T01:08:03;7.07;;;5.30;;
9934;SDS011;5006;41.828;23.478;2024-02-26T01:09:11;5.47;;;4.97;;
9934;SDS011;5006;41.828;23.478;2024-02-26T01:10:16;6.85;;;5.63;;
9934;SDS011;5006;41.828;23.478;2024-02-26T01:11:23;6.40;;;5.38;;
9934;SDS011;5006;41.828;23.478;2024-02-26T01:12:30;6.20;;;5.60;;
9934;SDS011;5006;41.828;23.478;2024-02-26T01:13:35;11.57;;;5.72;;
9934;SDS011;5006;41.828;23.478;2024-02-26T01:14:41;5.78;;;5.28;;
9934;SDS011;5006;41.828;23.478;2024-02-26T01:15:46;7.55;;;5.30;;
9934;SDS011;5006;41.828;23.478;2024-02-26T01:16:54;5.65;;;4.80;;
9934;SDS011;5006;41.828;23.478;2024-02-26T01:17:59;5.60;;;5.03;;
9934;SDS011;5006;41.828;23.478;2024-02-26T01:19:05;6.40;;;4.85;;
9934;SDS011;5006;41.828;23.478;2024-02-26T01:20:11;7.65;;;4.88;;
9934;SDS011;5006;41.828;23.478;2024-02-26T01:21:18;6.50;;;5.10;;
9934;SDS011;5006;41.828;23.478;2024-02-26T01:22:24;6.20;;;4.90;;
9934;SDS011;5006;41.828;23.478;2024-02-26T01:23:31;5.78;;;4.95;;
9934;SDS011;5006;41.828;23.478;2024-02-26T01:24:37;6.60;;;5.20;;
9934;SDS011;5006;41.828;23.478;2024-02-26T01:25:43;5.25;;;4.70;;
9934;SDS011;5006;41.828;23.478;2024-02-26T01:26:48;6.28;;;4.78;;
9934;SDS011;5006;41.828;23.478;2024-02-26T01:27:54;5.57;;;5.03;;
9934;SDS011;5006;41.828;23.478;2024-02-26T01:29:01;7.03;;;5.20;;
9934;SDS011;5006;41.828;23.478;2024-02-26T01:30:08;6.20;;;4.75;;
9934;SDS011;5006;41.828;23.478;2024-02-26T01:31:13;5.45;;;4.40;;
9934;SDS011;5006;41.828;23.478;2024-02-26T01:32:19;6.70;;;4.93;;
9934;SDS011;5006;41.828;23.478;2024-02-26T01:33:24;6.47;;;4.80;;
9934;SDS011;5006;41.828;23.478;2024-02-26T01:34:30;6.32;;;5.15;;
9934;SDS011;5006;41.828;23.478;2024-02-26T01:35:35;5.63;;;5.13;;
9934;SDS011;5006;41.828;23.478;2024-02-26T01:36:41;8.02;;;6.35;;
9934;SDS011;5006;41.828;23.478;2024-02-26T01:37:46;7.57;;;6.05;;
9934;SDS011;5006;41.828;23.478;2024-02-26T01:38:52;8.20;;;6.13;;
9934;SDS011;5006;41.828;23.478;2024-02-26T01:40:00;5.85;;;5.15;;
9934;SDS011;5006;41.828;23.478;2024-02-26T01:41:09;7.00;;;6.15;;
9934;SDS011;5006;41.828;23.478;2024-02-26T01:42:16;8.50;;;6.65;;
9934;SDS011;5006;41.828;23.478;2024-02-26T01:43:21;8.00;;;6.75;;
9934;SDS011;5006;41.828;23.478;2024-02-26T01:44:29;10.38;;;9.18;;
9934;SDS011;5006;41.828;23.478;2024-02-26T01:45:35;10.05;;;8.50;;
9934;SDS011;5006;41.828;23.478;2024-02-26T01:46:42;9.75;;;8.00;;
9934;SDS011;5006;41.828;23.478;2024-02-26T01:47:48;11.02;;;7.82;;
9934;SDS011;5006;41.828;23.478;2024-02-26T01:48:55;11.88;;;8.52;;
9934;SDS011;5006;41.828;23.478;2024-02-26T01:50:02;8.95;;;8.02;;
9934;SDS011;5006;41.828;23.478;2024-02-26T01:51:09;9.63;;;8.60;;
9934;SDS011;5006;41.828;23.478;2024-02-26T01:52:15;9.55;;;8.18;;
9934;SDS011;5006;41.828;23.478;2024-02-26T01:53:23;9.05;;;8.15;;
9934;SDS011;5006;41.828;23.478;2024-02-26T01:54:29;8.85;;;7.72;;
9934;SDS011;5006;41.828;23.478;2024-02-26T01:55:38;10.00;;;7.70;;
9934;SDS011;5006;41.828;23.478;2024-02-26T01:56:45;9.32;;;7.50;;
9934;SDS011;5006;41.828;23.478;2024-02-26T01:57:51;8.93;;;6.93;;
9934;SDS011;5006;41.828;23.478;2024-02-26T01:58:58;6.60;;;5.82;;
9934;SDS011;5006;41.828;23.478;2024-02-26T02:00:05;6.65;;;5.95;;
9934;SDS011;5006;41.828;23.478;2024-02-26T02:01:13;7.70;;;5.60;;
9934;SDS011;5006;41.828;23.478;2024-02-26T02:02:21;6.32;;;5.72;;
9934;SDS011;5006;41.828;23.478;2024-02-26T02:03:26;8.90;;;5.45;;
9934;SDS011;5006;41.828;23.478;2024-02-26T02:04:34;8.38;;;6.55;;
9934;SDS011;5006;41.828;23.478;2024-02-26T02:05:39;7.55;;;6.50;;
9934;SDS011;5006;41.828;23.478;2024-02-26T02:06:48;7.88;;;7.05;;
9934;SDS011;5006;41.828;23.478;2024-02-26T02:07:53;7.18;;;6.18;;
9934;SDS011;5006;41.828;23.478;2024-02-26T02:09:00;7.63;;;6.82;;
9934;SDS011;5006;41.828;23.478;2024-02-26T02:10:10;6.45;;;5.55;;
9934;SDS011;5006;41.828;23.478;2024-02-26T02:11:19;6.40;;;5.68;;
9934;SDS011;5006;41.828;23.478;2024-02-26T02:12:25;7.47;;;6.63;;
9934;SDS011;5006;41.828;23.478;2024-02-26T02:13:32;7.40;;;6.68;;
9934;SDS011;5006;41.828;23.478;2024-02-26T02:14:37;7.80;;;6.38;;
9934;SDS011;5006;41.828;23.478;2024-02-26T02:15:44;8.07;;;7.07;;
9934;SDS011;5006;41.828;23.478;2024-02-26T02:16:50;10.40;;;8.25;;
9934;SDS011;5006;41.828;23.478;2024-02-26T02:17:56;9.43;;;7.50;;
9934;SDS011;5006;41.828;23.478;2024-02-26T02:19:03;8.52;;;6.85;;
9934;SDS011;5006;41.828;23.478;2024-02-26T02:20:10;7.60;;;6.90;;
9934;SDS011;5006;41.828;23.478;2024-02-26T02:21:22;8.63;;;7.72;;
9934;SDS011;5006;41.828;23.478;2024-02-26T02:22:28;11.20;;;8.65;;
9934;SDS011;5006;41.828;23.478;2024-02-26T02:23:37;9.40;;;8.43;;
9934;SDS011;5006;41.828;23.478;2024-02-26T02:24:44;13.43;;;9.73;;
9934;SDS011;5006;41.828;23.478;2024-02-26T02:25:50;11.63;;;9.00;;
9934;SDS011;5006;41.828;23.478;2024-02-26T02:26:57;12.82;;;9.23;;
9934;SDS011;5006;41.828;23.478;2024-02-26T02:28:02;10.27;;;9.27;;
9934;SDS011;5006;41.828;23.478;2024-02-26T02:29:08;15.70;;;11.55;;
9934;SDS011;5006;41.828;23.478;2024-02-26T02:30:14;10.45;;;9.32;;
9934;SDS011;5006;41.828;23.478;2024-02-26T02:31:20;10.48;;;8.80;;
9934;SDS011;5006;41.828;23.478;2024-02-26T02:32:25;13.48;;;10.48;;
9934;SDS011;5006;41.828;23.478;2024-02-26T02:33:34;17.15;;;12.90;;
9934;SDS011;5006;41.828;23.478;2024-02-26T02:34:39;13.13;;;10.55;;
9934;SDS011;5006;41.828;23.478;2024-02-26T02:35:46;11.05;;;9.38;;
9934;SDS011;5006;41.828;23.478;2024-02-26T02:36:53;11.45;;;9.05;;
9934;SDS011;5006;41.828;23.478;2024-02-26T02:37:59;9.50;;;8.48;;
9934;SDS011;5006;41.828;23.478;2024-02-26T02:39:04;11.50;;;9.20;;
9934;SDS011;5006;41.828;23.478;2024-02-26T02:40:10;13.32;;;9.60;;
9934;SDS011;5006;41.828;23.478;2024-02-26T02:41:17;11.23;;;8.40;;
9934;SDS011;5006;41.828;23.478;2024-02-26T02:42:23;12.93;;;8.88;;
9934;SDS011;5006;41.828;23.478;2024-02-26T02:43:29;9.27;;;8.38;;
9934;SDS011;5006;41.828;23.478;2024-02-26T02:44:34;10.55;;;9.40;;
9934;SDS011;5006;41.828;23.478;2024-02-26T02:45:40;9.68;;;8.30;;
9934;SDS011;5006;41.828;23.478;2024-02-26T02:46:45;8.35;;;7.45;;
9934;SDS011;5006;41.828;23.478;2024-02-26T02:47:51;10.10;;;8.60;;
9934;SDS011;5006;41.828;23.478;2024-02-26T02:48:56;9.57;;;8.07;;
9934;SDS011;5006;41.828;23.478;2024-02-26T02:50:02;8.50;;;7.32;;
9934;SDS011;5006;41.828;23.478;2024-02-26T02:51:08;9.18;;;7.18;;
9934;SDS011;5006;41.828;23.478;2024-02-26T02:52:17;6.80;;;6.20;;
9934;SDS011;5006;41.828;23.478;2024-02-26T02:53:22;7.45;;;6.00;;
9934;SDS011;5006;41.828;23.478;2024-02-26T02:54:28;8.63;;;6.32;;
9934;SDS011;5006;41.828;23.478;2024-02-26T02:55:33;9.45;;;6.10;;
9934;SDS011;5006;41.828;23.478;2024-02-26T02:56:40;9.73;;;6.35;;
9934;SDS011;5006;41.828;23.478;2024-02-26T02:57:45;7.60;;;6.18;;
9934;SDS011;5006;41.828;23.478;2024-02-26T02:58:52;8.23;;;6.60;;
9934;SDS011;5006;41.828;23.478;2024-02-26T02:59:58;11.75;;;7.22;;
9934;SDS011;5006;41.828;23.478;2024-02-26T03:01:04;8.52;;;6.38;;
9934;SDS011;5006;41.828;23.478;2024-02-26T03:02:09;6.80;;;5.95;;
9934;SDS011;5006;41.828;23.478;2024-02-26T03:03:15;7.25;;;6.40;;
9934;SDS011;5006;41.828;23.478;2024-02-26T03:04:20;7.20;;;6.50;;
9934;SDS011;5006;41.828;23.478;2024-02-26T03:05:27;7.00;;;6.30;;
9934;SDS011;5006;41.828;23.478;2024-02-26T03:06:33;7.70;;;6.32;;
9934;SDS011;5006;41.828;23.478;2024-02-26T03:07:40;7.38;;;6.68;;
9934;SDS011;5006;41.828;23.478;2024-02-26T03:08:45;8.05;;;7.35;;
9934;SDS011;5006;41.828;23.478;2024-02-26T03:09:52;7.57;;;6.68;;
9934;SDS011;5006;41.828;23.478;2024-02-26T03:10:58;7.38;;;6.68;;
9934;SDS011;5006;41.828;23.478;2024-02-26T03:12:05;8.77;;;6.85;;
9934;SDS011;5006;41.828;23.478;2024-02-26T03:13:11;9.23;;;7.13;;
9934;SDS011;5006;41.828;23.478;2024-02-26T03:14:17;7.90;;;6.97;;
9934;SDS011;5006;41.828;23.478;2024-02-26T03:15:22;8.63;;;6.70;;
9934;SDS011;5006;41.828;23.478;2024-02-26T03:16:29;7.13;;;6.07;;
9934;SDS011;5006;41.828;23.478;2024-02-26T03:17:34;7.05;;;6.35;;
9934;SDS011;5006;41.828;23.478;2024-02-26T03:18:40;7.45;;;6.25;;
9934;SDS011;5006;41.828;23.478;2024-02-26T03:19:45;6.30;;;5.70;;
9934;SDS011;5006;41.828;23.478;2024-02-26T03:20:57;9.18;;;5.60;;
9934;SDS011;5006;41.828;23.478;2024-02-26T03:22:03;6.88;;;5.88;;
9934;SDS011;5006;41.828;23.478;2024-02-26T03:23:11;6.40;;;5.78;;
9934;SDS011;5006;41.828;23.478;2024-02-26T03:24:20;6.75;;;5.50;;
9934;SDS011;5006;41.828;23.478;2024-02-26T03:25:26;6.38;;;4.97;;
9934;SDS011;5006;41.828;23.478;2024-02-26T03:26:31;7.05;;;5.28;;
9934;SDS011;5006;41.828;23.478;2024-02-26T03:27:39;6.07;;;5.10;;
9934;SDS011;5006;41.828;23.478;2024-02-26T03:28:45;6.13;;;5.10;;
9934;SDS011;5006;41.828;23.478;2024-02-26T03:29:51;5.65;;;4.93;;
9934;SDS011;5006;41.828;23.478;2024-02-26T03:30:57;8.57;;;5.32;;
9934;SDS011;5006;41.828;23.478;2024-02-26T03:32:05;6.53;;;5.70;;
9934;SDS011;5006;41.828;23.478;2024-02-26T03:33:11;7.13;;;5.50;;
9934;SDS011;5006;41.828;23.478;2024-02-26T03:34:18;7.38;;;5.60;;
9934;SDS011;5006;41.828;23.478;2024-02-26T03:35:24;6.72;;;5.40;;
9934;SDS011;5006;41.828;23.478;2024-02-26T03:36:30;5.82;;;5.18;;
9934;SDS011;5006;41.828;23.478;2024-02-26T03:37:36;5.50;;;5.00;;
9934;SDS011;5006;41.828;23.478;2024-02-26T03:38:43;7.05;;;5.38;;
9934;SDS011;5006;41.828;23.478;2024-02-26T03:39:50;6.88;;;5.18;;
9934;SDS011;5006;41.828;23.478;2024-02-26T03:40:55;7.35;;;5.13;;
9934;SDS011;5006;41.828;23.478;2024-02-26T03:42:01;6.20;;;5.18;;
9934;SDS011;5006;41.828;23.478;2024-02-26T03:43:07;8.15;;;5.00;;
9934;SDS011;5006;41.828;23.478;2024-02-26T03:44:13;5.70;;;5.00;;
9934;SDS011;5006;41.828;23.478;2024-02-26T03:45:19;6.57;;;5.35;;
9934;SDS011;5006;41.828;23.478;2024-02-26T03:46:25;8.93;;;5.32;;
9934;SDS011;5006;41.828;23.478;2024-02-26T03:47:31;5.47;;;4.97;;
9934;SDS011;5006;41.828;23.478;2024-02-26T03:48:36;8.82;;;6.00;;
9934;SDS011;5006;41.828;23.478;2024-02-26T03:49:41;7.60;;;4.97;;
9934;SDS011;5006;41.828;23.478;2024-02-26T03:50:47;6.85;;;4.65;;
9934;SDS011;5006;41.828;23.478;2024-02-26T03:51:52;7.95;;;4.45;;
9934;SDS011;5006;41.828;23.478;2024-02-26T03:52:58;5.50;;;4.53;;
9934;SDS011;5006;41.828;23.478;2024-02-26T03:54:06;4.90;;;4.40;;
9934;SDS011;5006;41.828;23.478;2024-02-26T03:55:11;5.53;;;5.03;;
9934;SDS011;5006;41.828;23.478;2024-02-26T03:56:18;7.80;;;4.60;;
9934;SDS011;5006;41.828;23.478;2024-02-26T03:57:23;5.20;;;4.57;;
9934;SDS011;5006;41.828;23.478;2024-02-26T03:58:29;8.32;;;5.25;;
9934;SDS011;5006;41.828;23.478;2024-02-26T03:59:34;5.35;;;4.85;;
9934;SDS011;5006;41.828;23.478;2024-02-26T04:00:42;7.53;;;5.43;;
9934;SDS011;5006;41.828;23.478;2024-02-26T04:01:48;6.35;;;5.55;;
9934;SDS011;5006;41.828;23.478;2024-02-26T04:02:55;5.60;;;5.10;;
9934;SDS011;5006;41.828;23.478;2024-02-26T04:04:01;5.45;;;4.95;;
9934;SDS011;5006;41.828;23.478;2024-02-26T04:05:09;5.35;;;4.85;;
9934;SDS011;5006;41.828;23.478;2024-02-26T04:06:14;6.75;;;5.20;;
9934;SDS011;5006;41.828;23.478;2024-02-26T04:07:22;5.30;;;4.70;;
9934;SDS011;5006;41.828;23.478;2024-02-26T04:08:27;6.75;;;5.55;;
9934;SDS011;5006;41.828;23.478;2024-02-26T04:09:35;5.22;;;4.72;;
9934;SDS011;5006;41.828;23.478;2024-02-26T04:10:40;5.40;;;4.90;;
9934;SDS011;5006;41.828;23.478;2024-02-26T04:11:46;8.05;;;4.97;;
9934;SDS011;5006;41.828;23.478;2024-02-26T04:12:51;5.60;;;4.95;;
9934;SDS011;5006;41.828;23.478;2024-02-26T04:13:57;5.45;;;4.95;;
9934;SDS011;5006;41.828;23.478;2024-02-26T04:15:03;5.65;;;4.68;;
9934;SDS011;5006;41.828;23.478;2024-02-26T04:16:11;5.07;;;4.57;;
9934;SDS011;5006;41.828;23.478;2024-02-26T04:17:17;6.40;;;5.00;;
9934;SDS011;5006;41.828;23.478;2024-02-26T04:18:23;7.38;;;4.97;;
9934;SDS011;5006;41.828;23.478;2024-02-26T04:19:29;7.80;;;5.20;;
9934;SDS011;5006;41.828;23.478;2024-02-26T04:20:36;5.90;;;5.00;;
9934;SDS011;5006;41.828;23.478;2024-02-26T04:21:41;6.03;;;5.13;;
9934;SDS011;5006;41.828;23.478;2024-02-26T04:22:47;5.10;;;4.60;;
9934;SDS011;5006;41.828;23.478;2024-02-26T04:23:53;5.22;;;4.70;;
9934;SDS011;5006;41.828;23.478;2024-02-26T04:25:01;6.63;;;4.70;;
9934;SDS011;5006;41.828;23.478;2024-02-26T04:26:08;6.50;;;4.90;;
9934;SDS011;5006;41.828;23.478;2024-02-26T04:27:15;5.25;;;4.55;;
9934;SDS011;5006;41.828;23.478;2024-02-26T04:28:20;6.57;;;4.60;;
9934;SDS011;5006;41.828;23.478;2024-02-26T04:29:29;5.20;;;4.70;;
9934;SDS011;5006;41.828;23.478;2024-02-26T04:30:34;6.60;;;4.70;;
9934;SDS011;5006;41.828;23.478;2024-02-26T04:31:40;5.70;;;4.40;;
9934;SDS011;5006;41.828;23.478;2024-02-26T04:32:47;7.05;;;4.40;;
9934;SDS011;5006;41.828;23.478;2024-02-26T04:33:55;5.68;;;4.20;;
9934;SDS011;5006;41.828;23.478;2024-02-26T04:35:03;6.47;;;4.75;;
9934;SDS011;5006;41.828;23.478;2024-02-26T04:36:12;5.93;;;4.28;;
9934;SDS011;5006;41.828;23.478;2024-02-26T04:37:20;5.53;;;4.47;;
9934;SDS011;5006;41.828;23.478;2024-02-26T04:38:25;6.18;;;4.22;;
9934;SDS011;5006;41.828;23.478;2024-02-26T04:39:31;4.65;;;4.25;;
9934;SDS011;5006;41.828;23.478;2024-02-26T04:40:38;7.35;;;4.75;;
9934;SDS011;5006;41.828;23.478;2024-02-26T04:41:44;5.55;;;4.45;;
9934;SDS011;5006;41.828;23.478;2024-02-26T04:42:49;6.05;;;4.45;;
9934;SDS011;5006;41.828;23.478;2024-02-26T04:43:56;5.10;;;4.40;;
9934;SDS011;5006;41.828;23.478;2024-02-26T04:45:02;5.00;;;4.50;;
9934;SDS011;5006;41.828;23.478;2024-02-26T04:46:09;5.60;;;4.40;;
9934;SDS011;5006;41.828;23.478;2024-02-26T04:47:13;4.78;;;4.03;;
9934;SDS011;5006;41.828;23.478;2024-02-26T04:48:21;5.32;;;4.45;;
9934;SDS011;5006;41.828;23.478;2024-02-26T04:49:27;6.50;;;4.65;;
9934;SDS011;5006;41.828;23.478;2024-02-26T04:50:34;5.13;;;4.50;;
9934;SDS011;5006;41.828;23.478;2024-02-26T04:51:40;4.65;;;4.03;;
9934;SDS011;5006;41.828;23.478;2024-02-26T04:52:46;5.63;;;4.35;;
9934;SDS011;5006;41.828;23.478;2024-02-26T04:53:52;6.63;;;4.13;;
9934;SDS011;5006;41.828;23.478;2024-02-26T04:54:59;5.93;;;4.07;;
9934;SDS011;5006;41.828;23.478;2024-02-26T04:56:06;4.93;;;4.30;;
9934;SDS011;5006;41.828;23.478;2024-02-26T04:57:13;4.38;;;3.90;;
9934;SDS011;5006;41.828;23.478;2024-02-26T04:58:19;4.32;;;3.92;;
9934;SDS011;5006;41.828;23.478;2024-02-26T04:59:25;4.53;;;3.90;;
9934;SDS011;5006;41.828;23.478;2024-02-26T05:00:30;5.13;;;3.70;;
9934;SDS011;5006;41.828;23.478;2024-02-26T05:01:36;4.32;;;3.92;;
9934;SDS011;5006;41.828;23.478;2024-02-26T05:02:41;5.68;;;4.10;;
9934;SDS011;5006;41.828;23.478;2024-02-26T05:03:47;4.20;;;3.78;;
9934;SDS011;5006;41.828;23.478;2024-02-26T05:04:54;4.95;;;4.55;;
9934;SDS011;5006;41.828;23.478;2024-02-26T05:06:00;7.25;;;4.40;;
9934;SDS011;5006;41.828;23.478;2024-02-26T05:07:05;4.35;;;3.92;;
9934;SDS011;5006;41.828;23.478;2024-02-26T05:08:11;4.82;;;4.03;;
9934;SDS011;5006;41.828;23.478;2024-02-26T05:09:17;5.80;;;3.85;;
9934;SDS011;5006;41.828;23.478;2024-02-26T05:10:23;5.82;;;4.20;;
9934;SDS011;5006;41.828;23.478;2024-02-26T05:11:30;4.45;;;3.88;;
9934;SDS011;5006;41.828;23.478;2024-02-26T05:12:37;4.85;;;4.15;;
9934;SDS011;5006;41.828;23.478;2024-02-26T05:13:42;5.57;;;4.30;;
9934;SDS011;5006;41.828;23.478;2024-02-26T05:14:49;5.20;;;4.35;;
9934;SDS011;5006;41.828;23.478;2024-02-26T05:15:54;5.00;;;4.18;;
9934;SDS011;5006;41.828;23.478;2024-02-26T05:17:00;5.88;;;4.07;;
9934;SDS011;5006;41.828;23.478;2024-02-26T05:18:05;4.95;;;4.15;;
9934;SDS011;5006;41.828;23.478;2024-02-26T05:19:13;5.18;;;4.13;;
9934;SDS011;5006;41.828;23.478;2024-02-26T05:20:19;5.57;;;4.30;;
9934;SDS011;5006;41.828;23.478;2024-02-26T05:21:24;5.50;;;4.38;;
9934;SDS011;5006;41.828;23.478;2024-02-26T05:22:29;6.18;;;4.03;;
9934;SDS011;5006;41.828;23.478;2024-02-26T05:23:37;5.28;;;4.10;;
9934;SDS011;5006;41.828;23.478;2024-02-26T05:24:42;4.43;;;3.80;;
9934;SDS011;5006;41.828;23.478;2024-02-26T05:25:50;5.60;;;3.78;;
9934;SDS011;5006;41.828;23.478;2024-02-26T05:26:59;4.82;;;3.85;;
9934;SDS011;5006;41.828;23.478;2024-02-26T05:28:05;4.40;;;4.00;;
9934;SDS011;5006;41.828;23.478;2024-02-26T05:29:11;5.38;;;4.07;;
9934;SDS011;5006;41.828;23.478;2024-02-26T05:30:16;4.20;;;3.80;;
9934;SDS011;5006;41.828;23.478;2024-02-26T05:31:22;4.93;;;3.80;;
9934;SDS011;5006;41.828;23.478;2024-02-26T05:32:28;4.32;;;3.63;;
9934;SDS011;5006;41.828;23.478;2024-02-26T05:33:34;4.65;;;4.18;;
9934;SDS011;5006;41.828;23.478;2024-02-26T05:34:39;4.55;;;4.15;;
9934;SDS011;5006;41.828;23.478;2024-02-26T05:35:47;4.55;;;3.70;;
9934;SDS011;5006;41.828;23.478;2024-02-26T05:36:51;3.90;;;3.58;;
9934;SDS011;5006;41.828;23.478;2024-02-26T05:37:57;5.53;;;3.95;;
9934;SDS011;5006;41.828;23.478;2024-02-26T05:39:02;4.85;;;4.22;;
9934;SDS011;5006;41.828;23.478;2024-02-26T05:40:10;4.50;;;3.85;;
9934;SDS011;5006;41.828;23.478;2024-02-26T05:41:16;4.22;;;3.60;;
9934;SDS011;5006;41.828;23.478;2024-02-26T05:42:29;4.63;;;3.58;;
9934;SDS011;5006;41.828;23.478;2024-02-26T05:43:35;5.72;;;4.00;;
9934;SDS011;5006;41.828;23.478;2024-02-26T05:44:41;4.72;;;4.00;;
9934;SDS011;5006;41.828;23.478;2024-02-26T05:45:47;4.38;;;3.97;;
9934;SDS011;5006;41.828;23.478;2024-02-26T05:46:53;4.97;;;4.25;;
9934;SDS011;5006;41.828;23.478;2024-02-26T05:47:57;5.47;;;4.22;;
9934;SDS011;5006;41.828;23.478;2024-02-26T05:49:04;4.90;;;4.40;;
9934;SDS011;5006;41.828;23.478;2024-02-26T05:50:10;5.70;;;4.40;;
9934;SDS011;5006;41.828;23.478;2024-02-26T05:51:16;6.45;;;4.40;;
9934;SDS011;5006;41.828;23.478;2024-02-26T05:52:21;8.32;;;7.47;;
9934;SDS011;5006;41.828;23.478;2024-02-26T05:53:27;5.13;;;4.30;;
9934;SDS011;5006;41.828;23.478;2024-02-26T05:54:33;7.07;;;5.88;;
9934;SDS011;5006;41.828;23.478;2024-02-26T05:55:38;6.53;;;5.50;;
9934;SDS011;5006;41.828;23.478;2024-02-26T05:56:43;5.70;;;4.45;;
9934;SDS011;5006;41.828;23.478;2024-02-26T05:57:51;4.68;;;3.95;;
9934;SDS011;5006;41.828;23.478;2024-02-26T05:58:57;6.22;;;3.90;;
9934;SDS011;5006;41.828;23.478;2024-02-26T06:00:03;6.43;;;3.90;;
9934;SDS011;5006;41.828;23.478;2024-02-26T06:01:16;4.60;;;3.80;;
9934;SDS011;5006;41.828;23.478;2024-02-26T06:02:22;6.20;;;4.30;;
9934;SDS011;5006;41.828;23.478;2024-02-26T06:03:27;4.53;;;3.85;;
9934;SDS011;5006;41.828;23.478;2024-02-26T06:04:33;4.43;;;4.03;;
9934;SDS011;5006;41.828;23.478;2024-02-26T06:05:38;4.47;;;4.07;;
9934;SDS011;5006;41.828;23.478;2024-02-26T06:06:44;6.50;;;4.47;;
9934;SDS011;5006;41.828;23.478;2024-02-26T06:07:50;6.15;;;4.88;;
9934;SDS011;5006;41.828;23.478;2024-02-26T06:08:56;7.68;;;6.35;;
9934;SDS011;5006;41.828;23.478;2024-02-26T06:10:01;7.85;;;7.00;;
9934;SDS011;5006;41.828;23.478;2024-02-26T06:11:09;6.60;;;5.20;;
9934;SDS011;5006;41.828;23.478;2024-02-26T06:12:15;5.95;;;4.82;;
9934;SDS011;5006;41.828;23.478;2024-02-26T06:13:22;6.05;;;5.35;;
9934;SDS011;5006;41.828;23.478;2024-02-26T06:14:27;5.63;;;4.68;;
9934;SDS011;5006;41.828;23.478;2024-02-26T06:15:33;4.10;;;3.63;;
9934;SDS011;5006;41.828;23.478;2024-02-26T06:16:40;6.95;;;5.30;;
9934;SDS011;5006;41.828;23.478;2024-02-26T06:17:47;5.20;;;4.53;;
9934;SDS011;5006;41.828;23.478;2024-02-26T06:18:52;5.10;;;4.45;;
9934;SDS011;5006;41.828;23.478;2024-02-26T06:19:58;4.68;;;3.80;;
9934;SDS011;5006;41.828;23.478;2024-02-26T06:21:04;7.40;;;4.45;;
9934;SDS011;5006;41.828;23.478;2024-02-26T06:22:15;5.82;;;4.68;;
9934;SDS011;5006;41.828;23.478;2024-02-26T06:23:20;7.85;;;4.15;;
9934;SDS011;5006;41.828;23.478;2024-02-26T06:24:27;5.80;;;4.93;;
9934;SDS011;5006;41.828;23.478;2024-02-26T06:25:32;5.15;;;4.18;;
9934;SDS011;5006;41.828;23.478;2024-02-26T06:26:39;4.78;;;3.85;;
9934;SDS011;5006;41.828;23.478;2024-02-26T06:27:44;4.30;;;3.90;;
9934;SDS011;5006;41.828;23.478;2024-02-26T06:28:53;4.53;;;4.03;;
9934;SDS011;5006;41.828;23.478;2024-02-26T06:29:58;5.43;;;4.18;;
9934;SDS011;5006;41.828;23.478;2024-02-26T06:31:04;5.05;;;4.00;;
9934;SDS011;5006;41.828;23.478;2024-02-26T06:32:09;6.07;;;3.85;;
9934;SDS011;5006;41.828;23.478;2024-02-26T06:33:16;4.10;;;3.58;;
9934;SDS011;5006;41.828;23.478;2024-02-26T06:34:22;4.78;;;3.47;;
9934;SDS011;5006;41.828;23.478;2024-02-26T06:35:28;4.60;;;3.05;;
9934;SDS011;5006;41.828;23.478;2024-02-26T06:36:33;4.55;;;3.50;;
9934;SDS011;5006;41.828;23.478;2024-02-26T06:37:40;4.35;;;3.35;;
9934;SDS011;5006;41.828;23.478;2024-02-26T06:38:46;4.55;;;3.13;;
9934;SDS011;5006;41.828;23.478;2024-02-26T06:39:54;3.63;;;2.60;;
9934;SDS011;5006;41.828;23.478;2024-02-26T06:40:59;5.72;;;2.88;;
9934;SDS011;5006;41.828;23.478;2024-02-26T06:42:06;3.85;;;2.60;;
9934;SDS011;5006;41.828;23.478;2024-02-26T06:43:12;7.30;;;3.22;;
9934;SDS011;5006;41.828;23.478;2024-02-26T06:44:19;3.40;;;3.10;;
9934;SDS011;5006;41.828;23.478;2024-02-26T06:45:25;5.03;;;3.10;;